aviador You're here:

KRCM Decoded Metar

in _UNIDENTIFIED
Report Time2017-09-20 20:15:00
UTC Time2017-09-20 20:14:14
Flight Rules vfr VFR
Wind180° at 10 kt
W.Decomp.*RWY 18: 9.9 kt HW 1.2 kt LCW
RWY 13: 7.3 kt HW 6.8 kt RCW
W.Rank180° ranks 4
Current wind is above 180° avg. (7.8)
Visibility9999 m
Phenomena:N/A
Clouds:Scattered 037 Hf
Scattered 047 Hf
Expected CloudBase > 4,000 ft AGL from Temp-Dew spread
CeilingNone
Temp32°C (ISA +19)
Dew Point22°C (55% RH)
Heat Index35.6°C
QNH1009 hPa
Density Alt3,406 ft
Elevation801 ft
Report Wrong Elevation
Raw Report
KRCM 202015Z AUTO 18010KT 10SM SCT037 SCT047 32/22 A2981 RMK
AO2=

Extra information for KRCM:More info

Metar Taf Metar & Taf Last 4 Metars F.Rules Stats Wind Profile Meteogram Temp Stats Metar ALERT Operation Metar Decoded Social comments